Time;durP1;ratioP1;P1;durP2;ratioP2;P2;SDS_P1;SDS_P2;PMS_P1;PMS_P2;Temp;Humidity;BMP_temperature;BMP_pressure;BME280_temperature;BME280_humidity;BME280_pressure;Samples;Min_cycle;Max_cycle;Signal;HPM_P1;HPM_P2
2021/03/28 00:00:08;;;;;;;7.30;3.73;;;9.50;58.70;;;;;;5037722;28;20184;-90
2021/03/28 00:02:53;;;;;;;4.93;3.30;;;9.50;59.40;;;;;;5066958;28;20199;-90
2021/03/28 00:05:29;;;;;;;7.33;3.80;;;9.50;59.60;;;;;;5045482;28;20152;-90
2021/03/28 00:08:00;;;;;;;6.80;4.40;;;9.50;60.40;;;;;;5083777;28;20193;-90
2021/03/28 00:10:28;;;;;;;5.37;4.07;;;9.50;60.00;;;;;;5093824;28;20195;-89
2021/03/28 00:13:06;;;;;;;7.70;4.47;;;9.50;59.70;;;;;;5049872;28;20219;-91
2021/03/28 00:15:39;;;;;;;6.97;3.87;;;9.60;59.90;;;;;;5058539;28;20272;-89
2021/03/28 00:18:24;;;;;;;5.63;3.27;;;9.70;59.80;;;;;;5077882;28;20165;-90
2021/03/28 00:21:03;;;;;;;5.63;3.57;;;9.60;60.30;;;;;;5075228;28;20177;-90
2021/03/28 00:23:30;;;;;;;5.97;3.73;;;9.60;60.20;;;;;;5084053;28;20191;-90
2021/03/28 00:26:03;;;;;;;7.43;3.93;;;9.60;60.00;;;;;;5084585;28;20194;-89
2021/03/28 00:28:44;;;;;;;7.23;4.07;;;9.50;60.20;;;;;;5075011;28;20286;-90
2021/03/28 00:31:32;;;;;;;5.67;4.20;;;9.50;60.90;;;;;;5060173;28;20255;-89
2021/03/28 00:34:26;;;;;;;4.80;3.80;;;9.50;61.70;;;;;;5063561;28;20254;-89
2021/03/28 00:36:56;;;;;;;4.40;3.50;;;9.50;61.80;;;;;;5078957;28;20678;-90
2021/03/28 00:39:50;;;;;;;6.33;4.00;;;9.50;62.50;;;;;;5060022;28;20177;-90
2021/03/28 00:42:46;;;;;;;9.63;4.23;;;9.50;61.20;;;;;;5078147;28;20211;-89
2021/03/28 00:45:23;;;;;;;7.53;4.43;;;9.50;61.10;;;;;;5060691;28;20176;-89
2021/03/28 00:48:22;;;;;;;5.37;3.47;;;9.50;59.80;;;;;;5064223;28;20198;-89
2021/03/28 00:51:17;;;;;;;8.63;4.00;;;9.40;61.20;;;;;;5079457;28;20203;-89
2021/03/28 00:53:55;;;;;;;5.40;3.70;;;9.50;61.70;;;;;;5054352;28;20212;-90
2021/03/28 00:56:41;;;;;;;5.90;4.00;;;9.40;63.30;;;;;;5058267;28;20163;-90
2021/03/28 00:59:19;;;;;;;5.83;4.17;;;9.40;62.30;;;;;;5058959;28;20180;-90
2021/03/28 01:02:20;;;;;;;6.80;4.40;;;9.40;62.10;;;;;;5065954;28;20294;-89
2021/03/28 01:04:49;;;;;;;5.80;3.63;;;9.30;61.90;;;;;;5076685;28;20643;-89
2021/03/28 01:07:32;;;;;;;6.10;3.90;;;9.20;61.80;;;;;;5076397;28;20528;-90
2021/03/28 01:10:48;;;;;;;8.87;4.60;;;9.20;62.30;;;;;;5076691;28;20191;-89
2021/03/28 01:13:33;;;;;;;8.40;5.10;;;9.10;60.50;;;;;;4976703;28;20289;-90
2021/03/28 01:16:46;;;;;;;5.97;3.97;;;9.10;60.10;;;;;;5080101;28;20159;-91
2021/03/28 01:19:51;;;;;;;6.77;3.70;;;9.00;60.60;;;;;;5075571;28;20187;-91
2021/03/28 01:22:48;;;;;;;4.33;3.60;;;9.10;64.30;;;;;;5077882;28;20806;-89
2021/03/28 01:25:19;;;;;;;6.03;3.70;;;9.10;64.00;;;;;;5058519;28;20195;-89
2021/03/28 01:27:48;;;;;;;6.33;4.23;;;9.10;63.20;;;;;;5062145;28;20176;-89
2021/03/28 01:30:17;;;;;;;6.57;4.00;;;9.20;62.70;;;;;;5078848;28;20203;-90
2021/03/28 01:32:47;;;;;;;6.23;3.80;;;9.10;64.00;;;;;;5078094;28;20720;-90
2021/03/28 01:35:13;;;;;;;6.13;3.60;;;9.10;64.70;;;;;;5077225;28;20180;-90
2021/03/28 01:37:53;;;;;;;12.87;8.73;;;9.00;64.90;;;;;;5076074;28;20224;-89
2021/03/28 01:40:31;;;;;;;7.33;3.90;;;8.90;65.30;;;;;;5059331;28;20164;-89
2021/03/28 01:43:12;;;;;;;8.60;4.23;;;8.90;64.80;;;;;;5060633;28;20215;-90
2021/03/28 01:45:40;;;;;;;7.67;4.17;;;9.00;64.40;;;;;;5077164;28;20618;-90
2021/03/28 01:48:25;;;;;;;6.70;4.33;;;9.00;64.00;;;;;;5081213;28;20211;-89
2021/03/28 01:51:18;;;;;;;5.40;3.87;;;9.00;63.90;;;;;;5085344;28;20198;-89
2021/03/28 01:54:02;;;;;;;7.47;4.80;;;8.90;64.00;;;;;;5067785;28;20239;-90
2021/03/28 01:56:52;;;;;;;5.30;4.00;;;8.80;62.50;;;;;;5078082;28;20172;-90
2021/03/28 01:59:21;;;;;;;6.17;4.07;;;8.70;62.40;;;;;;5112378;22;20239;-84
2021/03/28 02:01:51;;;;;;;9.47;4.90;;;8.70;62.20;;;;;;5029065;28;20733;-84
2021/03/28 02:04:40;;;;;;;9.03;4.07;;;8.30;61.80;;;;;;5020044;28;20169;-87
2021/03/28 02:07:39;;;;;;;7.80;4.27;;;8.20;63.10;;;;;;5001859;28;20220;-87
2021/03/28 02:10:47;;;;;;;6.80;3.60;;;8.00;63.00;;;;;;5024763;28;20223;-87
2021/03/28 02:13:28;;;;;;;7.10;4.03;;;8.10;64.00;;;;;;5019426;28;20189;-87
2021/03/28 02:16:08;;;;;;;8.33;3.90;;;8.30;63.50;;;;;;5021365;28;20263;-86
2021/03/28 02:19:13;;;;;;;7.77;4.00;;;8.40;63.60;;;;;;5039359;28;20317;-87
2021/03/28 02:22:02;;;;;;;6.63;3.53;;;8.60;63.00;;;;;;4985491;28;20202;-87
2021/03/28 02:24:37;;;;;;;5.40;3.80;;;8.70;62.20;;;;;;5039475;28;20165;-87
2021/03/28 02:27:37;;;;;;;4.30;3.40;;;8.70;62.40;;;;;;5038411;28;20196;-87
2021/03/28 02:30:10;;;;;;;6.30;3.70;;;8.80;62.20;;;;;;5025349;28;20233;-87
2021/03/28 02:32:58;;;;;;;5.57;3.47;;;8.80;61.20;;;;;;5039417;28;20290;-87
2021/03/28 02:36:12;;;;;;;7.63;4.00;;;8.80;61.00;;;;;;5030601;28;20208;-86
2021/03/28 02:39:17;;;;;;;4.10;3.23;;;8.60;61.30;;;;;;5039085;28;20161;-87
2021/03/28 02:41:45;;;;;;;5.70;3.30;;;8.60;61.10;;;;;;5040109;28;20254;-87
2021/03/28 02:44:28;;;;;;;6.20;3.37;;;8.60;61.70;;;;;;5038594;28;20188;-87
2021/03/28 02:47:31;;;;;;;6.23;3.70;;;8.70;61.80;;;;;;5038537;28;20181;-86
2021/03/28 02:50:33;;;;;;;6.70;3.83;;;8.60;60.80;;;;;;5038482;28;20219;-86
2021/03/28 02:53:14;;;;;;;6.87;4.07;;;8.50;60.80;;;;;;5038610;28;20187;-87
2021/03/28 02:55:58;;;;;;;6.37;3.43;;;8.40;61.20;;;;;;5018831;28;20189;-87
2021/03/28 02:58:50;;;;;;;5.67;3.30;;;8.50;62.60;;;;;;5030328;28;20654;-86
2021/03/28 03:01:39;;;;;;;6.80;3.60;;;8.50;61.80;;;;;;5038699;28;20181;-87
2021/03/28 03:04:23;;;;;;;5.17;3.03;;;8.50;62.20;;;;;;5039068;28;20654;-86
2021/03/28 03:07:26;;;;;;;6.83;3.30;;;8.40;62.20;;;;;;5038357;28;20181;-87
2021/03/28 03:10:12;;;;;;;7.80;3.10;;;8.50;62.30;;;;;;5037736;28;20212;-86
2021/03/28 03:13:07;;;;;;;5.73;3.23;;;8.40;62.50;;;;;;5038309;28;20213;-87
2021/03/28 03:16:19;;;;;;;5.20;2.90;;;8.20;62.10;;;;;;5035341;28;20308;-87
2021/03/28 03:19:11;;;;;;;4.10;2.73;;;8.30;62.40;;;;;;4992012;28;20189;-86
2021/03/28 03:22:01;;;;;;;6.50;3.43;;;8.00;63.50;;;;;;5041795;28;20241;-87
2021/03/28 03:24:37;;;;;;;6.80;3.30;;;7.60;64.80;;;;;;5047763;28;20233;-86
2021/03/28 03:27:08;;;;;;;3.83;2.73;;;7.60;64.90;;;;;;5039144;28;20246;-86
2021/03/28 03:30:05;;;;;;;4.77;3.17;;;7.70;65.60;;;;;;5037819;28;20223;-87
2021/03/28 03:32:39;;;;;;;5.83;3.17;;;7.80;64.00;;;;;;5037981;28;20262;-86
2021/03/28 03:35:32;;;;;;;5.07;3.00;;;7.80;64.10;;;;;;5038537;28;20204;-87
2021/03/28 03:37:57;;;;;;;4.80;2.67;;;8.00;63.70;;;;;;5037710;28;20180;-86
2021/03/28 03:40:47;;;;;;;4.73;2.90;;;8.20;62.50;;;;;;5037845;28;20204;-87
2021/03/28 03:43:18;;;;;;;5.03;3.00;;;8.30;61.90;;;;;;5038039;28;20193;-86
2021/03/28 03:46:02;;;;;;;5.37;3.03;;;8.30;62.30;;;;;;5020158;28;20639;-86
2021/03/28 03:49:05;;;;;;;6.83;2.90;;;8.30;63.00;;;;;;5038529;28;20212;-86
2021/03/28 03:51:44;;;;;;;4.00;2.83;;;8.20;62.70;;;;;;5038294;28;20165;-86
2021/03/28 03:54:12;;;;;;;7.30;2.93;;;8.20;62.80;;;;;;5037947;28;20177;-87
2021/03/28 03:56:49;;;;;;;4.70;2.97;;;8.30;63.00;;;;;;5038063;28;20196;-86
2021/03/28 03:59:43;;;;;;;5.47;3.20;;;8.30;63.10;;;;;;5042135;28;20761;-87
2021/03/28 04:02:27;;;;;;;4.87;3.13;;;8.30;62.40;;;;;;5041341;28;20185;-87
2021/03/28 04:05:08;;;;;;;4.07;2.43;;;8.30;62.10;;;;;;5042549;28;20559;-86
2021/03/28 04:07:52;;;;;;;5.57;3.47;;;8.10;62.60;;;;;;5040848;28;20181;-84
2021/03/28 04:11:09;;;;;;;5.13;2.90;;;8.10;63.10;;;;;;5042089;28;20214;-84
2021/03/28 04:14:08;;;;;;;4.43;3.03;;;8.10;63.50;;;;;;5005075;28;20205;-84
2021/03/28 04:16:52;;;;;;;8.03;3.13;;;8.10;63.70;;;;;;5021352;28;20525;-84
2021/03/28 04:19:38;;;;;;;5.70;2.63;;;8.20;63.60;;;;;;5022189;28;20204;-84
2021/03/28 04:22:45;;;;;;;4.27;2.47;;;8.00;61.90;;;;;;5021629;28;20180;-86
2021/03/28 04:25:23;;;;;;;7.57;2.93;;;7.60;64.10;;;;;;5010677;28;20201;-86
2021/03/28 04:27:55;;;;;;;6.87;2.87;;;7.40;64.90;;;;;;5023014;28;20208;-87
2021/03/28 04:30:39;;;;;;;5.43;2.87;;;7.40;64.50;;;;;;5040886;28;20579;-86
2021/03/28 04:33:09;;;;;;;6.50;3.10;;;7.60;64.70;;;;;;5041039;28;20173;-86
2021/03/28 04:35:47;;;;;;;5.10;2.97;;;7.70;63.70;;;;;;5041436;28;20177;-87
2021/03/28 04:38:22;;;;;;;6.63;3.13;;;7.70;64.30;;;;;;5041425;28;20180;-84
2021/03/28 04:41:21;;;;;;;5.73;2.57;;;7.70;63.30;;;;;;5041184;28;20201;-85
2021/03/28 04:44:18;;;;;;;3.83;2.43;;;7.60;64.60;;;;;;5040735;28;20260;-85
2021/03/28 04:47:17;;;;;;;5.13;2.90;;;7.70;65.00;;;;;;5022184;28;20209;-85
2021/03/28 04:50:13;;;;;;;11.77;2.77;;;7.80;64.50;;;;;;5018940;28;20217;-85
2021/03/28 04:53:00;;;;;;;4.97;2.37;;;7.80;63.80;;;;;;5018928;28;20253;-85
2021/03/28 04:55:35;;;;;;;5.73;2.80;;;7.80;64.10;;;;;;5033548;28;20555;-85
2021/03/28 04:58:21;;;;;;;6.10;2.20;;;7.70;63.10;;;;;;5041524;28;20168;-85
2021/03/28 05:01:15;;;;;;;4.20;2.07;;;7.70;64.40;;;;;;5041820;28;20216;-85
2021/03/28 05:04:21;;;;;;;9.57;3.13;;;7.70;64.00;;;;;;5041670;28;20161;-85
2021/03/28 05:06:58;;;;;;;6.23;2.53;;;7.60;63.90;;;;;;5042188;28;20184;-85
2021/03/28 05:09:29;;;;;;;4.40;2.60;;;7.50;65.20;;;;;;5041738;28;20224;-85
2021/03/28 05:12:27;;;;;;;5.33;3.13;;;7.50;64.30;;;;;;5041821;28;20181;-85
2021/03/28 05:15:11;;;;;;;4.37;2.63;;;7.40;64.40;;;;;;5018450;28;20197;-85
2021/03/28 05:18:15;;;;;;;6.20;5.60;;;7.20;65.50;;;;;;5040051;28;20240;-85
2021/03/28 05:20:58;;;;;;;4.03;2.73;;;7.10;65.50;;;;;;4991402;28;20290;-85
2021/03/28 05:23:45;;;;;;;5.23;2.67;;;7.00;65.70;;;;;;5041292;28;20505;-85
2021/03/28 05:26:53;;;;;;;4.57;2.77;;;7.10;66.00;;;;;;5041034;28;20192;-85
2021/03/28 05:29:45;;;;;;;4.50;2.57;;;6.70;66.00;;;;;;5041439;28;20212;-85
2021/03/28 05:32:29;;;;;;;5.07;3.00;;;6.20;68.40;;;;;;5039350;28;20238;-85
2021/03/28 05:35:36;;;;;;;6.13;2.87;;;6.00;70.00;;;;;;5041270;28;20173;-85
2021/03/28 05:38:38;;;;;;;5.70;2.90;;;6.00;70.20;;;;;;4987095;28;20199;-84
2021/03/28 05:41:37;;;;;;;4.73;2.57;;;6.10;70.40;;;;;;5041419;28;20222;-84
2021/03/28 05:44:21;;;;;;;6.40;2.70;;;6.10;69.40;;;;;;5041114;28;20678;-84
2021/03/28 05:47:33;;;;;;;6.27;2.47;;;6.10;69.70;;;;;;5040665;28;20188;-84
2021/03/28 05:50:27;;;;;;;6.10;2.63;;;6.20;69.90;;;;;;5040832;28;20216;-84
2021/03/28 05:53:41;;;;;;;7.17;2.43;;;6.40;69.40;;;;;;5041552;28;20539;-84
2021/03/28 05:56:46;;;;;;;3.40;3.10;;;6.50;68.90;;;;;;4974726;28;20284;-84
2021/03/28 05:59:18;;;;;;;4.20;2.53;;;6.60;69.20;;;;;;5047597;28;20251;-84
2021/03/28 06:02:11;;;;;;;6.77;2.83;;;6.70;67.70;;;;;;5021604;28;20224;-84
2021/03/28 06:05:14;;;;;;;6.30;3.10;;;6.50;68.00;;;;;;5038990;28;20173;-84
2021/03/28 06:08:16;;;;;;;5.63;2.77;;;6.30;69.20;;;;;;5018831;28;20644;-85
2021/03/28 06:11:00;;;;;;;5.57;2.70;;;6.20;69.30;;;;;;5020297;28;20679;-84
2021/03/28 06:14:13;;;;;;;5.73;3.00;;;6.40;69.20;;;;;;5019161;28;20195;-84
2021/03/28 06:17:02;;;;;;;8.07;6.23;;;6.50;68.60;;;;;;5011698;28;20247;-84
2021/03/28 06:20:12;;;;;;;7.03;5.20;;;6.60;68.90;;;;;;5015981;28;20205;-84
2021/03/28 06:22:50;;;;;;;5.27;3.63;;;6.70;68.90;;;;;;5013990;28;20205;-84
2021/03/28 06:25:31;;;;;;;9.63;6.30;;;6.70;68.50;;;;;;5037141;28;20188;-84
2021/03/28 06:28:27;;;;;;;10.27;3.47;;;6.80;68.50;;;;;;5035333;28;20205;-84
2021/03/28 06:31:25;;;;;;;6.23;3.37;;;6.70;69.10;;;;;;5036592;28;20205;-84
2021/03/28 06:34:29;;;;;;;4.17;2.70;;;6.80;69.20;;;;;;5036228;28;20177;-85
2021/03/28 06:37:20;;;;;;;3.73;2.37;;;6.80;68.60;;;;;;5032994;28;20342;-85
2021/03/28 06:40:37;;;;;;;5.97;2.73;;;6.80;69.20;;;;;;5036757;28;20675;-85
2021/03/28 06:43:19;;;;;;;4.47;2.37;;;6.80;69.70;;;;;;5034788;28;20169;-86
2021/03/28 06:45:59;;;;;;;6.07;2.43;;;6.80;69.40;;;;;;5034398;28;20173;-85
2021/03/28 06:48:36;;;;;;;5.47;2.87;;;6.80;69.50;;;;;;5035019;28;20165;-85
2021/03/28 06:51:24;;;;;;;7.07;3.00;;;6.70;69.90;;;;;;5035704;28;20492;-85
2021/03/28 06:54:26;;;;;;;4.77;3.13;;;6.70;69.10;;;;;;5034323;28;20259;-85
2021/03/28 06:57:11;;;;;;;4.80;2.60;;;6.80;69.80;;;;;;5034352;28;20183;-84
2021/03/28 06:59:48;;;;;;;5.20;3.67;;;6.90;68.60;;;;;;5034174;28;20220;-85
2021/03/28 07:02:51;;;;;;;6.03;3.13;;;6.80;69.60;;;;;;5038345;28;20219;-85
2021/03/28 07:05:45;;;;;;;6.07;3.03;;;6.90;70.60;;;;;;5038254;28;20622;-85
2021/03/28 07:08:11;;;;;;;5.33;3.23;;;6.80;69.80;;;;;;5039071;28;20207;-85
2021/03/28 07:10:59;;;;;;;4.60;2.97;;;6.90;70.20;;;;;;5040061;28;20208;-85
2021/03/28 07:14:17;;;;;;;7.83;3.70;;;7.00;71.60;;;;;;5041343;28;20188;-85
2021/03/28 07:17:15;;;;;;;6.57;3.37;;;7.20;70.90;;;;;;4977994;28;20348;-85
2021/03/28 07:20:05;;;;;;;6.93;3.23;;;7.30;70.50;;;;;;5036840;28;20209;-85
2021/03/28 07:22:53;;;;;;;6.00;3.40;;;7.40;69.90;;;;;;5037158;28;20663;-85
2021/03/28 07:25:26;;;;;;;8.23;3.00;;;7.40;69.70;;;;;;5037903;28;20187;-85
2021/03/28 07:28:29;;;;;;;5.33;3.60;;;7.50;68.90;;;;;;5037697;28;20588;-87
2021/03/28 07:31:06;;;;;;;7.73;3.60;;;7.60;69.30;;;;;;5037903;28;20295;-85
2021/03/28 07:33:50;;;;;;;6.87;3.40;;;7.50;68.30;;;;;;5038065;28;20191;-85
2021/03/28 07:36:27;;;;;;;6.47;3.20;;;7.40;68.70;;;;;;5038749;28;20188;-85
2021/03/28 07:39:14;;;;;;;7.43;3.57;;;7.20;69.60;;;;;;5037618;28;20192;-85
2021/03/28 07:42:10;;;;;;;10.20;3.60;;;7.10;70.00;;;;;;5038756;28;20165;-85
2021/03/28 07:44:48;;;;;;;8.33;3.60;;;6.90;71.40;;;;;;5022205;28;20196;-85
2021/03/28 07:47:43;;;;;;;8.13;3.50;;;6.70;72.40;;;;;;5035539;28;20189;-85
2021/03/28 07:50:27;;;;;;;6.17;3.10;;;6.80;72.70;;;;;;5036727;28;20208;-85
2021/03/28 07:53:49;;;;;;;6.97;3.37;;;6.90;72.80;;;;;;5036842;28;20161;-85
2021/03/28 07:56:15;;;;;;;7.47;3.43;;;7.10;71.50;;;;;;4954546;29;20168;-85
2021/03/28 07:58:56;;;;;;;5.00;3.23;;;7.40;69.30;;;;;;4939398;29;20197;-85
2021/03/28 08:01:49;;;;;;;5.83;3.33;;;7.60;67.70;;;;;;5011242;28;20202;-86
2021/03/28 08:04:29;;;;;;;7.27;3.73;;;7.70;67.70;;;;;;5035743;28;20177;-86
2021/03/28 08:07:13;;;;;;;9.20;3.47;;;7.80;68.40;;;;;;5036299;28;20172;-85
2021/03/28 08:10:07;;;;;;;5.70;2.90;;;8.00;67.60;;;;;;5035803;28;20204;-85
2021/03/28 08:13:10;;;;;;;6.83;4.13;;;8.00;67.40;;;;;;5036204;28;20299;-86
2021/03/28 08:16:37;;;;;;;8.33;3.73;;;8.20;67.00;;;;;;5037155;28;20188;-86
2021/03/28 08:19:15;;;;;;;6.10;3.07;;;8.20;65.20;;;;;;4953121;28;20215;-86
2021/03/28 08:21:58;;;;;;;8.67;4.03;;;8.40;63.40;;;;;;5036486;28;20173;-85
2021/03/28 08:24:45;;;;;;;7.63;2.90;;;8.50;64.20;;;;;;5035126;28;20200;-86
2021/03/28 08:27:19;;;;;;;5.67;3.37;;;8.60;62.70;;;;;;5034547;28;20177;-86
2021/03/28 08:30:19;;;;;;;6.53;3.30;;;8.80;61.70;;;;;;5039445;28;20227;-86
2021/03/28 08:33:19;;;;;;;9.93;3.13;;;8.90;61.20;;;;;;5046707;28;20416;-86
2021/03/28 08:36:35;;;;;;;12.33;4.00;;;8.90;61.60;;;;;;5034697;28;20182;-86
2021/03/28 08:39:21;;;;;;;9.57;2.83;;;9.10;60.20;;;;;;4990782;28;20692;-86
2021/03/28 08:42:16;;;;;;;6.87;3.20;;;9.40;59.60;;;;;;5020050;28;20605;-87
2021/03/28 08:45:03;;;;;;;5.50;2.87;;;9.50;58.20;;;;;;4932737;28;20735;-86
2021/03/28 08:47:35;;;;;;;5.03;3.30;;;9.60;58.50;;;;;;5020105;28;20224;-86
2021/03/28 08:50:16;;;;;;;6.10;3.70;;;9.90;56.90;;;;;;5026174;28;20227;-86
2021/03/28 08:53:09;;;;;;;4.47;3.10;;;10.00;57.80;;;;;;5039916;28;20181;-86
2021/03/28 08:56:13;;;;;;;8.37;3.43;;;10.20;57.40;;;;;;5034820;28;20196;-86
2021/03/28 08:58:54;;;;;;;7.07;3.30;;;10.30;56.80;;;;;;5039779;28;20232;-86
2021/03/28 09:01:49;;;;;;;6.10;3.23;;;10.50;53.70;;;;;;5031619;28;20177;-86
2021/03/28 09:04:20;;;;;;;6.83;3.80;;;10.50;54.30;;;;;;5031389;28;20197;-86
2021/03/28 09:07:07;;;;;;;5.77;3.37;;;10.70;54.10;;;;;;5029561;28;20628;-87
2021/03/28 09:09:41;;;;;;;5.17;3.27;;;10.90;52.80;;;;;;5018747;28;20241;-87
2021/03/28 09:12:22;;;;;;;6.30;3.40;;;11.00;52.10;;;;;;5016075;28;20187;-87
2021/03/28 09:15:11;;;;;;;7.00;3.33;;;11.20;52.30;;;;;;5017684;28;20169;-87
2021/03/28 09:18:04;;;;;;;6.03;3.40;;;11.30;52.90;;;;;;5017701;28;20208;-86
2021/03/28 09:20:42;;;;;;;7.97;3.13;;;11.40;50.70;;;;;;5018520;28;20255;-86
2021/03/28 09:23:24;;;;;;;5.57;3.33;;;11.70;50.00;;;;;;5000199;28;20185;-87
2021/03/28 09:26:26;;;;;;;7.03;3.20;;;11.70;50.90;;;;;;5025797;28;20264;-86
2021/03/28 09:28:51;;;;;;;5.93;3.40;;;11.90;49.80;;;;;;5037020;28;20605;-87
2021/03/28 09:31:46;;;;;;;8.73;3.60;;;12.10;50.00;;;;;;5036545;28;20177;-87
2021/03/28 09:34:30;;;;;;;6.03;3.40;;;12.00;49.40;;;;;;5036996;28;20643;-87
2021/03/28 09:37:27;;;;;;;4.50;3.10;;;12.40;49.30;;;;;;5037189;28;20157;-87
2021/03/28 09:39:58;;;;;;;6.00;3.13;;;12.30;49.20;;;;;;5039170;28;20231;-88
2021/03/28 09:42:47;;;;;;;4.77;2.70;;;12.40;48.90;;;;;;5040349;28;20673;-87
2021/03/28 09:45:28;;;;;;;5.43;3.53;;;12.60;48.20;;;;;;5039732;28;20181;-88
2021/03/28 09:48:11;;;;;;;4.53;3.00;;;12.70;48.20;;;;;;5034983;28;20184;-86
2021/03/28 09:51:01;;;;;;;5.47;3.00;;;12.90;47.10;;;;;;5018494;28;20226;-87
2021/03/28 09:53:54;;;;;;;7.47;3.37;;;12.70;48.20;;;;;;5020561;28;20183;-87
2021/03/28 09:56:20;;;;;;;7.43;3.40;;;12.80;47.10;;;;;;5002514;28;20193;-86
2021/03/28 09:59:14;;;;;;;7.27;3.30;;;13.10;47.30;;;;;;5020510;28;20568;-86
2021/03/28 10:01:53;;;;;;;4.70;3.23;;;12.80;46.10;;;;;;5022522;28;20170;-86
2021/03/28 10:05:17;;;;;;;6.53;3.20;;;13.00;47.10;;;;;;5039563;28;20213;-86
2021/03/28 10:08:10;;;;;;;5.97;3.00;;;13.30;46.50;;;;;;5020136;28;20175;-87
2021/03/28 10:10:50;;;;;;;11.60;3.30;;;13.10;45.10;;;;;;5031118;28;20213;-86
2021/03/28 10:13:28;;;;;;;6.23;2.40;;;13.50;45.20;;;;;;5039229;28;20179;-85
2021/03/28 10:16:43;;;;;;;8.47;2.97;;;13.50;44.90;;;;;;5038873;28;20204;-85
2021/03/28 10:19:21;;;;;;;5.13;2.77;;;13.50;44.40;;;;;;5005361;28;20246;-85
2021/03/28 10:21:56;;;;;;;7.03;3.03;;;13.50;44.20;;;;;;5020136;28;20190;-85
2021/03/28 10:24:46;;;;;;;5.53;3.17;;;13.90;43.00;;;;;;5035565;28;20191;-87
2021/03/28 10:27:27;;;;;;;6.17;2.80;;;13.70;43.10;;;;;;5041374;28;20277;-86
2021/03/28 10:30:13;;;;;;;7.47;3.10;;;14.00;42.70;;;;;;5025354;28;20215;-86
2021/03/28 10:33:00;;;;;;;6.63;3.17;;;14.10;42.30;;;;;;5023709;28;20181;-86
2021/03/28 10:35:32;;;;;;;6.37;2.70;;;14.00;42.80;;;;;;5038859;28;20170;-87
2021/03/28 10:38:23;;;;;;;7.63;2.80;;;14.30;42.50;;;;;;5036196;28;20174;-86
2021/03/28 10:41:04;;;;;;;6.37;2.47;;;14.40;42.50;;;;;;5039981;28;20668;-86
2021/03/28 10:43:47;;;;;;;5.60;2.83;;;14.40;41.50;;;;;;5018589;28;20233;-87
2021/03/28 10:46:28;;;;;;;4.83;2.70;;;14.50;41.10;;;;;;5036804;28;20266;-86
2021/03/28 10:49:20;;;;;;;5.97;2.80;;;14.40;40.20;;;;;;5030828;28;20199;-86
2021/03/28 10:52:08;;;;;;;7.10;3.40;;;14.10;40.50;;;;;;5042146;28;20269;-86
2021/03/28 10:54:46;;;;;;;4.73;2.33;;;14.30;39.70;;;;;;5026306;28;20179;-86
2021/03/28 10:57:46;;;;;;;6.33;2.67;;;14.60;39.10;;;;;;5017492;28;20229;-86
2021/03/28 11:00:27;;;;;;;5.77;2.53;;;14.60;38.50;;;;;;5023502;28;20231;-86
2021/03/28 11:03:25;;;;;;;4.63;2.30;;;14.70;38.40;;;;;;5039728;28;20193;-86
2021/03/28 11:06:25;;;;;;;6.87;2.73;;;14.60;38.70;;;;;;5011889;28;20213;-87
2021/03/28 11:09:17;;;;;;;6.70;2.53;;;14.70;37.60;;;;;;5036595;28;20746;-86
2021/03/28 11:12:00;;;;;;;4.47;2.73;;;14.80;37.80;;;;;;5036861;28;20623;-85
2021/03/28 11:15:01;;;;;;;4.33;2.57;;;15.10;38.90;;;;;;5035817;28;20192;-87
2021/03/28 11:17:49;;;;;;;5.20;2.60;;;15.50;39.20;;;;;;5028139;28;20183;-87
2021/03/28 11:20:27;;;;;;;4.30;2.40;;;15.40;37.30;;;;;;5018459;28;20207;-87
2021/03/28 11:23:16;;;;;;;7.87;3.03;;;15.30;38.10;;;;;;5034168;28;20546;-86
2021/03/28 11:26:10;;;;;;;5.27;2.63;;;15.20;38.00;;;;;;5018521;28;20550;-86
2021/03/28 11:29:11;;;;;;;5.03;2.80;;;15.00;38.30;;;;;;5018278;28;20200;-86
2021/03/28 11:32:00;;;;;;;4.97;2.70;;;15.20;38.70;;;;;;4981669;28;20239;-86
2021/03/28 11:34:56;;;;;;;7.20;2.80;;;15.40;36.30;;;;;;5037469;28;20282;-87
2021/03/28 11:37:30;;;;;;;4.93;2.43;;;15.60;36.80;;;;;;5031651;28;20271;-87
2021/03/28 11:40:07;;;;;;;7.50;3.07;;;15.60;36.30;;;;;;5033682;28;20262;-87
2021/03/28 11:42:34;;;;;;;7.60;2.80;;;15.60;36.80;;;;;;5009983;28;20194;-86
2021/03/28 11:45:00;;;;;;;5.80;2.80;;;15.80;37.30;;;;;;5038853;28;20281;-86
2021/03/28 11:47:51;;;;;;;4.10;2.47;;;15.60;36.50;;;;;;5038116;28;20208;-87
2021/03/28 11:50:16;;;;;;;7.50;2.47;;;15.90;36.50;;;;;;5039348;28;20270;-87
2021/03/28 11:52:54;;;;;;;5.10;2.50;;;15.90;36.30;;;;;;5040118;28;20197;-87
2021/03/28 11:55:25;;;;;;;5.07;2.30;;;16.30;36.00;;;;;;5041091;28;20230;-87
2021/03/28 11:58:16;;;;;;;5.73;3.30;;;16.40;35.00;;;;;;5037576;28;20180;-87
2021/03/28 12:00:46;;;;;;;4.47;2.50;;;16.00;35.80;;;;;;5032808;28;20306;-87
2021/03/28 12:03:21;;;;;;;3.23;2.40;;;16.20;35.60;;;;;;5032049;28;20177;-87
2021/03/28 12:05:56;;;;;;;7.37;2.93;;;16.40;35.50;;;;;;5028551;28;20211;-87
2021/03/28 12:08:25;;;;;;;7.13;2.90;;;16.40;36.20;;;;;;5036467;28;20189;-87
2021/03/28 12:10:52;;;;;;;5.27;2.97;;;16.70;35.80;;;;;;5031004;28;20703;-87
2021/03/28 12:13:33;;;;;;;8.80;2.90;;;16.60;34.40;;;;;;5031890;28;20179;-87
2021/03/28 12:16:04;;;;;;;4.30;2.47;;;16.60;33.60;;;;;;5032995;28;20177;-87
2021/03/28 12:18:29;;;;;;;4.80;3.47;;;16.60;34.90;;;;;;5044046;28;20162;-86
2021/03/28 12:21:07;;;;;;;5.83;3.13;;;16.10;35.00;;;;;;5025942;28;20211;-87
2021/03/28 12:24:02;;;;;;;4.70;2.77;;;16.20;35.60;;;;;;5032419;28;20637;-88
2021/03/28 12:26:35;;;;;;;5.73;3.20;;;16.90;35.20;;;;;;5023386;28;20202;-87
2021/03/28 12:29:27;;;;;;;5.80;3.07;;;17.00;34.90;;;;;;5029683;28;20208;-87
2021/03/28 12:31:54;;;;;;;4.70;2.70;;;16.90;35.10;;;;;;5035923;28;20521;-87
2021/03/28 12:34:33;;;;;;;5.27;2.63;;;17.10;33.40;;;;;;5039951;28;20176;-87
2021/03/28 12:37:10;;;;;;;9.50;5.50;;;17.10;32.80;;;;;;5035332;28;20633;-86
2021/03/28 12:39:38;;;;;;;5.30;2.87;;;17.70;32.80;;;;;;5039636;28;20287;-87
2021/03/28 12:42:24;;;;;;;5.13;3.03;;;17.90;32.30;;;;;;5045829;28;20177;-86
2021/03/28 12:44:53;;;;;;;9.63;3.30;;;18.10;32.00;;;;;;5044894;28;20242;-87
2021/03/28 12:47:29;;;;;;;7.60;2.83;;;18.20;31.80;;;;;;5045282;28;20205;-87
2021/03/28 12:50:26;;;;;;;7.07;4.23;;;18.40;31.70;;;;;;5044916;28;20239;-87
2021/03/28 12:53:01;;;;;;;5.37;2.80;;;18.20;32.80;;;;;;5037940;28;20259;-87
2021/03/28 12:55:36;;;;;;;5.60;2.60;;;17.90;32.70;;;;;;5040195;28;20328;-86
2021/03/28 12:58:10;;;;;;;4.30;2.70;;;17.80;33.60;;;;;;5045485;28;20184;-86
2021/03/28 13:00:52;;;;;;;5.23;3.20;;;17.40;33.50;;;;;;5045248;28;20215;-87
2021/03/28 13:03:35;;;;;;;4.30;2.70;;;17.80;32.10;;;;;;5045343;28;20186;-87
2021/03/28 13:06:05;;;;;;;3.30;2.60;;;18.00;31.70;;;;;;5044882;28;20181;-87
2021/03/28 13:08:52;;;;;;;4.53;2.93;;;18.00;32.70;;;;;;5045543;28;20177;-86
2021/03/28 13:11:42;;;;;;;5.97;3.07;;;18.10;32.80;;;;;;5044339;28;20241;-88
2021/03/28 13:14:30;;;;;;;8.50;3.10;;;18.30;31.50;;;;;;5033635;28;20525;-87
2021/03/28 13:17:04;;;;;;;6.73;2.87;;;17.80;32.50;;;;;;5039892;28;20166;-86
2021/03/28 13:19:34;;;;;;;6.83;2.67;;;17.60;33.00;;;;;;5019902;28;20550;-87
2021/03/28 13:22:04;;;;;;;5.03;3.07;;;18.00;32.00;;;;;;5037047;28;20244;-87
2021/03/28 13:24:30;;;;;;;5.03;2.60;;;18.40;31.80;;;;;;5021960;28;20216;-87
2021/03/28 13:27:09;;;;;;;6.10;3.03;;;18.40;32.30;;;;;;5024690;28;20729;-86
2021/03/28 13:29:40;;;;;;;4.03;2.93;;;18.40;31.70;;;;;;5040964;28;20229;-87
2021/03/28 13:32:36;;;;;;;6.93;3.00;;;18.20;32.60;;;;;;5043389;28;20157;-87
2021/03/28 13:35:24;;;;;;;5.33;3.17;;;17.90;32.60;;;;;;5042776;28;20195;-87
2021/03/28 13:37:54;;;;;;;5.57;2.97;;;17.90;31.90;;;;;;5030088;28;20194;-88
2021/03/28 13:40:24;;;;;;;6.40;2.97;;;18.30;32.80;;;;;;5051382;28;20200;-86
2021/03/28 13:43:03;;;;;;;7.13;2.97;;;18.30;32.60;;;;;;5029199;28;20183;-86
2021/03/28 13:45:39;;;;;;;3.40;2.67;;;18.50;31.80;;;;;;5042998;28;20163;-87
2021/03/28 13:48:10;;;;;;;4.60;2.70;;;18.30;31.80;;;;;;5042789;28;20275;-87
2021/03/28 13:50:49;;;;;;;6.03;2.90;;;18.30;30.80;;;;;;5042994;28;20262;-87
2021/03/28 13:53:39;;;;;;;7.47;3.03;;;18.30;32.10;;;;;;5025299;28;20192;-87
2021/03/28 13:56:44;;;;;;;6.73;3.20;;;18.10;32.00;;;;;;5042604;28;20208;-87
2021/03/28 13:59:18;;;;;;;4.80;3.17;;;18.30;31.60;;;;;;5024196;28;20270;-88
2021/03/28 14:01:51;;;;;;;5.10;3.10;;;18.70;30.50;;;;;;5041076;28;20250;-86
2021/03/28 14:04:35;;;;;;;5.07;3.17;;;18.90;31.20;;;;;;5039702;28;20195;-86
2021/03/28 14:07:32;;;;;;;3.87;3.07;;;18.60;31.20;;;;;;5034547;28;20624;-87
2021/03/28 14:10:14;;;;;;;4.77;3.00;;;18.50;31.60;;;;;;5040910;28;20225;-87
2021/03/28 14:12:53;;;;;;;5.50;3.07;;;18.20;31.90;;;;;;5039514;28;20237;-87
2021/03/28 14:15:25;;;;;;;4.27;3.00;;;18.50;32.20;;;;;;5042599;28;20181;-87
2021/03/28 14:17:59;;;;;;;6.03;3.00;;;18.90;31.00;;;;;;5039481;28;20268;-87
2021/03/28 14:20:36;;;;;;;5.87;2.90;;;18.50;31.50;;;;;;5024212;28;20512;-87
2021/03/28 14:23:11;;;;;;;7.47;3.47;;;18.40;32.00;;;;;;5042537;28;20269;-87
2021/03/28 14:25:46;;;;;;;7.87;2.97;;;18.90;31.90;;;;;;5041580;28;20189;-87
2021/03/28 14:28:27;;;;;;;6.37;2.73;;;18.60;31.50;;;;;;5040876;28;20211;-87